Погода Верхний Хомутецна 2 недели

Ростовская область, Россия

30 мая-12 июня
  • 30мая
    Сегодня
    +17°
    +30°
    Облачно с прояснениями
    ВремяПогодаТемператураВлажностьДавлениеВетер, м/сВероятность осадков
    00:00Ясно и безоблачно+17°C84 %759 мм2.1 м/с2 %
    03:00Ясно и безоблачно+16°C94 %759 мм2.1 м/с2 %
    06:00Ясно и безоблачно+17°C91 %759 мм0.7 м/с2 %
    09:00Ясно и безоблачно+23°C62 %758 мм1.1 м/с2 %
    12:00Практически безоблачно+27°C42 %758 мм1.3 м/с2 %
    15:00Облачно с прояснениями+29°C34 %757 мм2.1 м/с1 %
    18:00Облачно с прояснениями+29°C35 %756 мм1.6 м/с7 %
    21:00Облачно с прояснениями+22°C64 %757 мм3.1 м/с13 %
  • 31мая
    Пятница
    +15°
    +29°
    Облачно с прояснениями
    ВремяПогодаТемператураВлажностьДавлениеВетер, м/сВероятность осадков
    00:00Облачно с прояснениями+20°C79 %756 мм1.9 м/с11 %
    03:00Облачно с прояснениями+19°C82 %756 мм2.4 м/с23 %
    06:00Облачно с прояснениями+19°C81 %757 мм1.0 м/с30 %
    09:00Облачно с прояснениями+24°C57 %757 мм1.3 м/с9 %
    12:00Облачно с прояснениями+27°C51 %758 мм3.6 м/с35 %
    15:00Облачно с прояснениями+28°C48 %758 мм3.7 м/с26 %
    18:00Пасмурно, сплошная облачность+26°C52 %758 мм2.1 м/с33 %
    21:00Небольшая облачность, ливень+21°C84 %759 мм2.6 м/с53 %
  • 01июня
    Суббота
    +17°
    +31°
    Облачно с прояснениями
    ВремяПогодаТемператураВлажностьДавлениеВетер, м/сВероятность осадков
    00:00Небольшая облачность+18°C94 %759 мм2.1 м/с25 %
    03:00Ясно и безоблачно+17°C92 %759 мм1.6 м/с7 %
    06:00Облачно с прояснениями+18°C92 %759 мм1.5 м/с7 %
    09:00Облачно с прояснениями+23°C69 %759 мм2.1 м/с2 %
    12:00Облачно с прояснениями+28°C51 %759 мм3.7 м/с15 %
    15:00Облачно с прояснениями+30°C36 %759 мм5.2 м/с13 %
    18:00Облачно с прояснениями+28°C40 %759 мм5.4 м/с17 %
    21:00Ясно и безоблачно+22°C64 %760 мм4.5 м/с4 %
  • 02июня
    Воскресенье
    +17°
    +31°
    Ясно и безоблачно
    ВремяПогодаТемператураВлажностьДавлениеВетер, м/сВероятность осадков
    00:00Ясно и безоблачно+20°C76 %760 мм4.4 м/с3 %
    03:00Ясно и безоблачно+19°C74 %760 мм3.1 м/с2 %
    06:00Ясно и безоблачно+19°C71 %760 мм3.2 м/с2 %
    09:00Ясно и безоблачно+27°C48 %761 мм3.3 м/с2 %
    12:00Ясно и безоблачно+30°C35 %760 мм4.4 м/с3 %
    15:00Ясно и безоблачно+31°C35 %760 мм5.2 м/с2 %
    18:00Практически безоблачно+28°C40 %759 мм4.8 м/с3 %
    21:00Облачно с прояснениями+24°C61 %760 мм3.6 м/с2 %
  • 03июня
    Понедельник
    +17°
    +32°
    Небольшая облачность
    ВремяПогодаТемператураВлажностьДавлениеВетер, м/сВероятность осадков
    00:00Облачно с прояснениями+21°C75 %760 мм3.7 м/с2 %
    03:00Ясно и безоблачно+18°C83 %760 мм3.1 м/с2 %
    06:00Ясно и безоблачно+19°C81 %759 мм3.4 м/с2 %
    09:00Ясно и безоблачно+26°C47 %759 мм3.3 м/с2 %
    12:00Ясно и безоблачно+30°C33 %759 мм4.1 м/с5 %
    15:00Небольшая облачность+31°C37 %758 мм4.9 м/с10 %
    18:00Практически безоблачно+30°C45 %757 мм4.7 м/с8 %
    21:00Ясно и безоблачно+24°C60 %758 мм2.1 м/с2 %
Мы используем cookies
Соглашаюсь